createdAt,value
2022-08-08T00:00:54.655Z,3.30
2022-08-08T00:02:45.203Z,3.63
2022-08-08T00:05:18.941Z,3.60
2022-08-08T00:08:13.928Z,3.45
2022-08-08T00:10:57.169Z,3.70
2022-08-08T00:14:15.333Z,3.27
2022-08-08T00:16:27.286Z,3.52
2022-08-08T00:19:19.096Z,3.60
2022-08-08T00:22:01.675Z,3.27
2022-08-08T00:24:35.734Z,3.62
2022-08-08T00:27:11.823Z,3.30
2022-08-08T00:29:48.282Z,3.10
2022-08-08T00:32:35.055Z,3.33
2022-08-08T00:35:15.335Z,3.33
2022-08-08T00:38:31.522Z,3.45
2022-08-08T00:41:11.327Z,3.08
2022-08-08T00:43:59.135Z,3.22
2022-08-08T00:46:58.461Z,3.12
2022-08-08T00:49:27.263Z,3.30
2022-08-08T00:52:19.552Z,3.47
2022-08-08T00:55:04.630Z,3.95
2022-08-08T00:57:56.984Z,3.40
2022-08-08T01:00:28.393Z,3.10
2022-08-08T01:04:02.645Z,3.22
2022-08-08T01:06:18.071Z,3.60
2022-08-08T01:09:35.069Z,3.30
2022-08-08T01:12:06.493Z,3.37
2022-08-08T01:14:57.188Z,3.08
2022-08-08T01:17:56.986Z,3.62
2022-08-08T01:20:34.175Z,3.10
2022-08-08T01:24:06.585Z,3.40
2022-08-08T01:26:23.973Z,3.57
2022-08-08T01:29:35.428Z,3.20
2022-08-08T01:32:22.769Z,3.47
2022-08-08T01:35:12.613Z,3.20
2022-08-08T01:38:14.714Z,3.37
2022-08-08T01:41:15.854Z,2.90
2022-08-08T01:43:55.401Z,3.30
2022-08-08T01:46:53.144Z,3.47
2022-08-08T01:49:37.876Z,3.43
2022-08-08T01:52:53.662Z,3.47
2022-08-08T01:55:45.428Z,3.58
2022-08-08T01:58:11.347Z,3.93
2022-08-08T02:00:33.069Z,3.13
2022-08-08T02:03:55.828Z,3.40
2022-08-08T02:06:02.726Z,3.30
2022-08-08T02:08:58.295Z,3.47
2022-08-08T02:11:52.538Z,3.17
2022-08-08T02:14:55.714Z,3.37
2022-08-08T02:17:42.727Z,3.40
2022-08-08T02:20:14.774Z,3.63
2022-08-08T02:22:55.351Z,3.80
2022-08-08T02:25:56.365Z,3.42
2022-08-08T02:28:51.684Z,3.25
2022-08-08T02:32:05.019Z,3.30
2022-08-08T02:34:39.626Z,3.33
2022-08-08T02:37:51.805Z,2.90
2022-08-08T02:40:41.615Z,3.10
2022-08-08T02:44:39.153Z,3.30
2022-08-08T02:46:25.196Z,3.30
2022-08-08T02:49:07.843Z,3.55
2022-08-08T02:51:59.023Z,3.55
2022-08-08T02:54:52.608Z,3.57
2022-08-08T02:57:52.944Z,3.40
2022-08-08T03:00:51.206Z,3.00
2022-08-08T03:05:04.803Z,3.67
2022-08-08T03:06:37.989Z,3.35
2022-08-08T03:09:33.092Z,3.50
2022-08-08T03:12:36.858Z,3.80
2022-08-08T03:15:57.187Z,3.67
2022-08-08T03:18:06.932Z,3.50
2022-08-08T03:20:47.078Z,3.43
2022-08-08T03:23:18.082Z,3.40
2022-08-08T03:25:50.392Z,3.60
2022-08-08T03:28:33.761Z,3.70
2022-08-08T03:31:25.312Z,3.45
2022-08-08T03:34:01.006Z,3.67
2022-08-08T03:36:30.612Z,3.87
2022-08-08T03:39:14.361Z,3.50
2022-08-08T03:42:11.794Z,3.80
2022-08-08T03:44:07.071Z,3.50
2022-08-08T03:46:51.357Z,3.35
2022-08-08T03:49:57.740Z,4.07
2022-08-08T03:51:59.196Z,3.80
2022-08-08T03:54:52.566Z,3.98
2022-08-08T03:58:33.831Z,3.70
2022-08-08T03:59:35.626Z,3.60
2022-08-08T04:02:36.397Z,3.80
2022-08-08T04:04:54.091Z,3.90
2022-08-08T04:07:26.227Z,3.40
2022-08-08T04:10:05.156Z,3.83
2022-08-08T04:12:32.382Z,3.90
2022-08-08T04:15:03.445Z,3.70
2022-08-08T04:17:57.836Z,3.70
2022-08-08T04:20:09.288Z,3.60
2022-08-08T04:22:40.422Z,3.72
2022-08-08T04:25:13.061Z,4.10
2022-08-08T04:28:34.928Z,4.03
2022-08-08T04:30:18.080Z,3.80
2022-08-08T04:32:49.921Z,3.90
2022-08-08T04:35:22.799Z,4.00
2022-08-08T04:37:54.452Z,4.13
2022-08-08T04:40:25.364Z,4.33
2022-08-08T04:42:58.092Z,3.95
2022-08-08T04:45:29.455Z,4.40
2022-08-08T04:48:03.813Z,4.27
2022-08-08T04:50:38.575Z,4.10
2022-08-08T04:53:14.245Z,4.42
2022-08-08T04:55:55.195Z,3.58
2022-08-08T04:58:12.690Z,3.95
2022-08-08T05:00:43.485Z,4.13
2022-08-08T05:03:19.084Z,3.85
2022-08-08T05:05:47.777Z,4.00
2022-08-08T05:08:19.900Z,3.90
2022-08-08T05:10:52.088Z,4.28
2022-08-08T05:13:26.054Z,4.05
2022-08-08T05:16:54.433Z,3.50
2022-08-08T05:18:28.085Z,4.03
2022-08-08T05:20:58.750Z,4.05
2022-08-08T05:23:29.975Z,4.10
2022-08-08T05:26:02.856Z,3.67
2022-08-08T05:28:56.272Z,3.80
2022-08-08T05:31:08.653Z,4.20
2022-08-08T05:33:48.296Z,3.92
2022-08-08T05:36:12.597Z,3.67
2022-08-08T05:38:50.600Z,3.70
2022-08-08T05:41:25.769Z,3.85
2022-08-08T05:44:03.488Z,4.15
2022-08-08T05:46:33.911Z,3.15
2022-08-08T05:49:10.385Z,3.95
2022-08-08T05:51:48.800Z,3.70
2022-08-08T05:54:27.712Z,3.90
2022-08-08T05:56:47.370Z,3.70
2022-08-08T06:00:00.756Z,3.60
2022-08-08T06:01:58.415Z,3.75
2022-08-08T06:04:34.595Z,3.25
2022-08-08T06:07:07.402Z,3.90
2022-08-08T06:10:00.360Z,3.58
2022-08-08T06:12:14.485Z,3.80
2022-08-08T06:14:47.896Z,3.70
2022-08-08T06:17:19.798Z,3.95
2022-08-08T06:19:52.886Z,3.02
2022-08-08T06:22:33.166Z,3.95
2022-08-08T06:24:57.215Z,4.05
2022-08-08T06:27:31.529Z,3.70
2022-08-08T06:30:11.931Z,3.75
2022-08-08T06:32:47.612Z,3.77
2022-08-08T06:36:04.490Z,3.90
2022-08-08T06:38:02.613Z,3.70
2022-08-08T06:40:36.807Z,4.12
2022-08-08T06:43:09.514Z,3.87
2022-08-08T06:45:40.793Z,4.03
2022-08-08T06:48:11.259Z,3.90
2022-08-08T06:50:44.704Z,3.83
2022-08-08T06:53:20.081Z,4.03
2022-08-08T06:56:02.658Z,3.92
2022-08-08T06:58:21.570Z,3.95
2022-08-08T07:00:52.878Z,3.55
2022-08-08T07:03:52.200Z,3.92
2022-08-08T07:06:03.922Z,4.20
2022-08-08T07:08:42.678Z,4.08
2022-08-08T07:11:22.306Z,4.03
2022-08-08T07:14:01.131Z,3.87
2022-08-08T07:16:51.147Z,4.45
2022-08-08T07:19:41.273Z,3.70
2022-08-08T07:22:18.640Z,4.12
2022-08-08T07:24:56.623Z,4.20
2022-08-08T07:27:47.417Z,3.95
2022-08-08T07:30:08.212Z,3.85
2022-08-08T07:32:33.780Z,4.20
2022-08-08T07:35:08.654Z,3.40
2022-08-08T07:37:49.754Z,3.60
2022-08-08T07:40:29.118Z,3.58
2022-08-08T07:42:50.023Z,3.87
2022-08-08T07:45:26.493Z,3.33
2022-08-08T07:47:58.494Z,3.47
2022-08-08T07:50:30.643Z,3.40
2022-08-08T07:53:05.500Z,3.33
2022-08-08T07:55:37.383Z,3.40
2022-08-08T07:58:25.870Z,3.70
2022-08-08T08:01:03.214Z,3.37
2022-08-08T08:03:41.509Z,3.50
2022-08-08T08:06:12.023Z,3.33
2022-08-08T08:08:52.261Z,3.30
2022-08-08T08:11:38.438Z,3.33
2022-08-08T08:14:07.550Z,2.87
2022-08-08T08:16:37.583Z,3.42
2022-08-08T08:19:10.735Z,3.00
2022-08-08T08:21:57.622Z,3.10
2022-08-08T08:24:20.794Z,2.80
2022-08-08T08:26:54.781Z,2.60
2022-08-08T08:29:27.750Z,2.90
2022-08-08T08:32:05.348Z,3.15
2022-08-08T08:34:32.381Z,2.80
2022-08-08T08:37:07.954Z,2.70
2022-08-08T08:39:59.994Z,2.70
2022-08-08T08:42:13.410Z,2.95
2022-08-08T08:44:45.321Z,2.85
2022-08-08T08:47:19.876Z,2.85
2022-08-08T08:49:52.087Z,2.83
2022-08-08T08:52:22.736Z,2.77
2022-08-08T08:54:59.135Z,2.85
2022-08-08T08:57:31.860Z,2.60
2022-08-08T09:00:05.649Z,2.70
2022-08-08T09:02:41.652Z,2.70
2022-08-08T09:05:13.996Z,2.47
2022-08-08T09:07:52.196Z,2.83
2022-08-08T09:10:21.310Z,2.50
2022-08-08T09:12:53.283Z,2.83
2022-08-08T09:15:41.002Z,2.50
2022-08-08T09:17:57.421Z,2.77
2022-08-08T09:22:00.535Z,2.35
2022-08-08T09:23:05.098Z,2.27
2022-08-08T09:25:54.633Z,2.45
2022-08-08T09:28:11.362Z,2.37
2022-08-08T09:30:44.900Z,2.50
2022-08-08T09:34:15.316Z,2.47
2022-08-08T09:35:53.018Z,3.20
2022-08-08T09:38:32.993Z,2.40
2022-08-08T09:41:06.827Z,2.50
2022-08-08T09:44:05.303Z,3.12
2022-08-08T09:46:25.665Z,2.70
2022-08-08T09:48:55.706Z,3.02
2022-08-08T09:51:29.947Z,2.60
2022-08-08T09:54:09.569Z,2.37
2022-08-08T09:56:40.901Z,2.50
2022-08-08T09:59:53.285Z,2.90
2022-08-08T10:01:59.000Z,2.52
2022-08-08T10:04:38.587Z,2.70
2022-08-08T10:06:58.590Z,2.42
2022-08-08T10:09:35.907Z,2.58
2022-08-08T10:12:27.156Z,2.92
2022-08-08T10:14:41.068Z,2.67
2022-08-08T10:17:57.218Z,2.37
2022-08-08T10:19:58.291Z,2.67
2022-08-08T10:22:20.409Z,2.75
2022-08-08T10:24:54.266Z,2.80
2022-08-08T10:27:34.290Z,2.80
2022-08-08T10:30:05.590Z,2.60
2022-08-08T10:32:40.454Z,2.77
2022-08-08T10:36:06.882Z,3.15
2022-08-08T10:37:55.841Z,2.80
2022-08-08T10:40:32.156Z,2.60
2022-08-08T10:43:05.133Z,2.90
2022-08-08T10:45:56.302Z,2.70
2022-08-08T10:48:20.236Z,2.50
2022-08-08T10:50:52.432Z,2.65
2022-08-08T10:53:56.720Z,2.65
2022-08-08T10:56:01.276Z,2.90
2022-08-08T10:58:33.409Z,2.92
2022-08-08T11:01:12.550Z,2.70
2022-08-08T11:04:00.622Z,2.90
2022-08-08T11:06:19.622Z,2.45
2022-08-08T11:08:53.721Z,3.05
2022-08-08T11:11:31.981Z,2.90
2022-08-08T11:14:00.644Z,3.62
2022-08-08T11:16:34.536Z,3.00
2022-08-08T11:19:06.343Z,2.83
2022-08-08T11:21:55.883Z,2.85
2022-08-08T11:24:19.916Z,2.80
2022-08-08T11:26:56.745Z,2.90
2022-08-08T11:29:41.510Z,2.90
2022-08-08T11:32:00.672Z,2.80
2022-08-08T11:34:58.495Z,2.70
2022-08-08T11:37:15.685Z,2.60
2022-08-08T11:39:42.659Z,2.70
2022-08-08T11:42:17.379Z,2.70
2022-08-08T11:44:49.213Z,2.75
2022-08-08T11:47:21.007Z,2.70
2022-08-08T11:50:05.333Z,2.70
2022-08-08T11:52:43.356Z,2.72
2022-08-08T11:55:18.948Z,2.83
2022-08-08T11:57:54.166Z,2.60
2022-08-08T12:00:28.663Z,2.45
2022-08-08T12:03:00.915Z,2.58
2022-08-08T12:05:38.912Z,2.85
2022-08-08T12:08:10.420Z,2.70
2022-08-08T12:10:53.283Z,2.58
2022-08-08T12:13:38.441Z,3.02
2022-08-08T12:16:16.693Z,2.60
2022-08-08T12:18:53.469Z,2.90
2022-08-08T12:21:59.313Z,2.65
2022-08-08T12:24:13.126Z,3.08
2022-08-08T12:26:54.098Z,3.10
2022-08-08T12:29:39.965Z,3.12
2022-08-08T12:32:09.670Z,2.70
2022-08-08T12:34:42.792Z,2.40
2022-08-08T12:37:22.244Z,2.70
2022-08-08T12:40:01.871Z,2.70
2022-08-08T12:42:33.404Z,2.65
2022-08-08T12:45:54.722Z,2.90
2022-08-08T12:48:04.680Z,2.50
2022-08-08T12:50:15.464Z,4.08
2022-08-08T12:52:55.805Z,2.70
2022-08-08T12:55:35.679Z,2.72
2022-08-08T12:58:04.356Z,2.60
2022-08-08T13:00:39.313Z,2.45
2022-08-08T13:03:10.634Z,2.58
2022-08-08T13:06:05.757Z,2.80
2022-08-08T13:08:20.352Z,2.70
2022-08-08T13:11:00.343Z,2.62
2022-08-08T13:13:37.112Z,2.60
2022-08-08T13:16:25.522Z,2.83
2022-08-08T13:19:01.700Z,2.72
2022-08-08T13:21:53.624Z,2.70
2022-08-08T13:24:07.451Z,2.90
2022-08-08T13:26:40.724Z,2.70
2022-08-08T13:29:15.328Z,2.58
2022-08-08T13:31:52.965Z,2.55
2022-08-08T13:34:29.366Z,2.58
2022-08-08T13:36:58.484Z,2.60
2022-08-08T13:39:29.843Z,2.42
2022-08-08T13:42:01.342Z,2.50
2022-08-08T13:44:34.654Z,2.33
2022-08-08T13:47:07.143Z,2.47
2022-08-08T13:50:35.280Z,2.65
2022-08-08T13:52:23.195Z,2.67
2022-08-08T13:54:49.561Z,2.80
2022-08-08T13:57:19.046Z,2.55
2022-08-08T13:59:52.988Z,2.42
2022-08-08T14:02:32.835Z,2.92
2022-08-08T14:05:09.130Z,2.40
2022-08-08T14:07:42.247Z,2.60
2022-08-08T14:10:32.985Z,2.83
2022-08-08T14:12:55.983Z,2.60
2022-08-08T14:15:46.042Z,2.60
2022-08-08T14:18:35.974Z,2.50
2022-08-08T14:20:57.013Z,2.55
2022-08-08T14:24:04.716Z,2.85
2022-08-08T14:26:02.104Z,2.60
2022-08-08T14:28:30.488Z,2.52
2022-08-08T14:31:11.552Z,2.67
2022-08-08T14:33:46.498Z,2.47
2022-08-08T14:36:18.947Z,2.60
2022-08-08T14:38:52.939Z,2.70
2022-08-08T14:41:53.198Z,2.80
2022-08-08T14:44:09.955Z,2.98
2022-08-08T14:46:34.057Z,2.98
2022-08-08T14:49:31.720Z,3.20
2022-08-08T14:52:14.483Z,2.40
2022-08-08T14:54:49.653Z,2.55
2022-08-08T14:57:20.783Z,2.70
2022-08-08T14:59:54.605Z,2.70
2022-08-08T15:02:30.884Z,2.50
2022-08-08T15:05:10.839Z,2.50
2022-08-08T15:07:39.374Z,2.80
2022-08-08T15:10:04.475Z,2.60
2022-08-08T15:12:37.024Z,2.42
2022-08-08T15:15:09.846Z,2.62
2022-08-08T15:17:42.209Z,2.95
2022-08-08T15:20:14.826Z,2.58
2022-08-08T15:22:47.000Z,2.55
2022-08-08T15:25:29.265Z,3.10
2022-08-08T15:28:04.616Z,2.80
2022-08-08T15:30:22.863Z,2.45
2022-08-08T15:32:53.929Z,2.77
2022-08-08T15:35:25.250Z,2.98
2022-08-08T15:37:56.083Z,3.10
2022-08-08T15:40:28.130Z,3.08
2022-08-08T15:42:59.685Z,2.70
2022-08-08T15:45:30.134Z,2.80
2022-08-08T15:48:15.473Z,3.08
2022-08-08T15:50:51.953Z,2.72
2022-08-08T15:53:23.771Z,2.70
2022-08-08T15:55:56.833Z,2.72
2022-08-08T15:58:30.812Z,2.83
2022-08-08T16:01:01.119Z,2.55
2022-08-08T16:03:33.173Z,2.70
2022-08-08T16:06:04.120Z,2.80
2022-08-08T16:08:38.025Z,3.08
2022-08-08T16:13:05.369Z,2.98
2022-08-08T16:13:46.201Z,2.80
2022-08-08T16:16:17.521Z,3.00
2022-08-08T16:18:56.805Z,2.65
2022-08-08T16:21:27.174Z,2.80
2022-08-08T16:23:56.432Z,2.75
2022-08-08T16:26:33.743Z,2.75
2022-08-08T16:29:01.321Z,2.75
2022-08-08T16:31:34.582Z,3.10
2022-08-08T16:34:06.792Z,2.98
2022-08-08T16:36:41.664Z,2.87
2022-08-08T16:39:27.807Z,2.92
2022-08-08T16:41:51.351Z,3.10
2022-08-08T16:44:28.039Z,2.70
2022-08-08T16:46:56.363Z,2.90
2022-08-08T16:49:23.305Z,2.85
2022-08-08T16:55:06.009Z,2.83
2022-08-08T16:55:06.259Z,2.85
2022-08-08T16:57:19.769Z,3.00
2022-08-08T16:59:50.635Z,2.87
2022-08-08T17:02:12.446Z,2.83
2022-08-08T17:04:38.489Z,3.27
2022-08-08T17:07:09.796Z,2.87
2022-08-08T17:09:45.307Z,2.70
2022-08-08T17:12:18.430Z,2.98
2022-08-08T17:14:47.083Z,2.52
2022-08-08T17:17:41.342Z,2.75
2022-08-08T17:19:49.732Z,2.85
2022-08-08T17:22:21.132Z,2.70
2022-08-08T17:24:53.541Z,2.70
2022-08-08T17:27:29.086Z,3.40
2022-08-08T17:29:57.518Z,3.00
2022-08-08T17:32:28.983Z,3.00
2022-08-08T17:35:54.464Z,2.90
2022-08-08T17:37:32.654Z,3.47
2022-08-08T17:40:12.789Z,3.10
2022-08-08T17:42:37.674Z,3.15
2022-08-08T17:45:14.211Z,3.50
2022-08-08T17:47:43.101Z,3.20
2022-08-08T17:50:15.370Z,3.40
2022-08-08T17:52:47.695Z,3.95
2022-08-08T17:56:06.109Z,2.77
2022-08-08T17:57:51.825Z,3.60
2022-08-08T18:00:30.349Z,2.98
2022-08-08T18:03:07.900Z,3.42
2022-08-08T18:05:28.458Z,3.27
2022-08-08T18:08:02.422Z,3.00
2022-08-08T18:10:33.137Z,2.92
2022-08-08T18:13:04.255Z,3.27
2022-08-08T18:15:36.319Z,3.58
2022-08-08T18:18:28.849Z,3.47
2022-08-08T18:20:55.053Z,3.15
2022-08-08T18:23:15.053Z,3.33
2022-08-08T18:25:45.312Z,3.50
2022-08-08T18:28:19.240Z,3.47
2022-08-08T18:30:50.487Z,3.95
2022-08-08T18:34:10.552Z,3.55
2022-08-08T18:35:53.103Z,3.50
2022-08-08T18:38:29.600Z,5.97
2022-08-08T18:40:57.505Z,3.67
2022-08-08T18:43:42.606Z,3.40
2022-08-08T18:46:54.106Z,3.58
2022-08-08T18:48:34.213Z,3.37
2022-08-08T18:51:21.509Z,4.05
2022-08-08T18:54:02.634Z,4.03
2022-08-08T18:56:24.477Z,3.50
2022-08-08T18:58:57.099Z,3.50
2022-08-08T19:02:25.347Z,3.77
2022-08-08T19:04:10.234Z,3.50
2022-08-08T19:06:32.238Z,3.37
2022-08-08T19:09:13.453Z,3.80
2022-08-08T19:11:36.465Z,3.65
2022-08-08T19:14:08.314Z,4.00
2022-08-08T19:16:41.692Z,3.58
2022-08-08T19:19:14.008Z,3.62
2022-08-08T19:21:48.711Z,4.00
2022-08-08T19:24:39.166Z,4.08
2022-08-08T19:26:53.155Z,3.50
2022-08-08T19:29:23.514Z,4.28
2022-08-08T19:31:54.949Z,4.00
2022-08-08T19:34:35.981Z,3.83
2022-08-08T19:37:00.115Z,3.92
2022-08-08T19:39:35.777Z,3.87
2022-08-08T19:42:04.700Z,3.92
2022-08-08T19:44:43.123Z,4.05
2022-08-08T19:47:08.478Z,4.08
2022-08-08T19:49:39.334Z,3.90
2022-08-08T19:52:13.618Z,3.90
2022-08-08T19:54:45.050Z,4.45
2022-08-08T19:57:16.087Z,4.00
2022-08-08T19:59:46.555Z,4.00
2022-08-08T20:02:18.639Z,3.83
2022-08-08T20:04:49.569Z,3.85
2022-08-08T20:08:28.532Z,3.77
2022-08-08T20:09:55.741Z,4.25
2022-08-08T20:12:34.460Z,4.08
2022-08-08T20:15:00.572Z,3.75
2022-08-08T20:17:31.100Z,4.17
2022-08-08T20:20:01.866Z,4.20
2022-08-08T20:22:33.032Z,4.10
2022-08-08T20:25:03.835Z,4.00
2022-08-08T20:27:49.345Z,4.00
2022-08-08T20:30:55.823Z,3.87
2022-08-08T20:32:45.853Z,3.92
2022-08-08T20:35:17.219Z,4.35
2022-08-08T20:37:53.361Z,4.35
2022-08-08T20:40:38.576Z,4.00
2022-08-08T20:42:55.282Z,4.50
2022-08-08T20:45:55.069Z,4.03
2022-08-08T20:48:01.408Z,4.20
2022-08-08T20:50:33.887Z,4.15
2022-08-08T20:53:06.862Z,4.10
2022-08-08T20:55:42.504Z,3.95
2022-08-08T20:58:13.717Z,4.10
2022-08-08T21:00:42.408Z,4.12
2022-08-08T21:03:16.780Z,4.12
2022-08-08T21:05:49.299Z,3.95
2022-08-08T21:08:35.996Z,3.92
2022-08-08T21:10:50.633Z,4.10
2022-08-08T21:13:23.406Z,3.83
2022-08-08T21:16:06.320Z,3.72
2022-08-08T21:18:27.907Z,3.90
2022-08-08T21:20:57.902Z,3.92
2022-08-08T21:24:02.816Z,4.20
2022-08-08T21:26:06.008Z,3.50
2022-08-08T21:28:37.289Z,4.08
2022-08-08T21:31:22.830Z,4.03
2022-08-08T21:33:42.641Z,3.95
2022-08-08T21:36:20.606Z,3.87
2022-08-08T21:38:51.493Z,4.33
2022-08-08T21:41:38.612Z,4.33
2022-08-08T21:43:54.484Z,4.20
2022-08-08T21:48:07.163Z,4.08
2022-08-08T21:48:58.631Z,4.00
2022-08-08T21:54:17.814Z,4.78
2022-08-08T21:54:32.401Z,5.20
2022-08-08T21:56:43.607Z,3.83
2022-08-08T21:59:09.743Z,5.60
2022-08-08T22:01:42.010Z,4.25
2022-08-08T22:04:14.278Z,4.15
2022-08-08T22:06:46.112Z,4.28
2022-08-08T22:09:16.714Z,3.45
2022-08-08T22:11:51.218Z,3.60
2022-08-08T22:14:19.925Z,3.90
2022-08-08T22:16:51.010Z,3.87
2022-08-08T22:19:23.657Z,4.10
2022-08-08T22:21:54.718Z,3.85
2022-08-08T22:24:28.208Z,3.62
2022-08-08T22:27:01.784Z,3.22
2022-08-08T22:30:02.712Z,3.33
2022-08-08T22:32:05.945Z,3.65
2022-08-08T22:34:39.421Z,3.60
2022-08-08T22:37:22.187Z,3.15
2022-08-08T22:40:00.417Z,3.95
2022-08-08T22:42:27.368Z,3.60
2022-08-08T22:44:52.617Z,3.77
2022-08-08T22:47:23.006Z,3.80
2022-08-08T22:50:00.014Z,3.27
2022-08-08T22:52:33.654Z,3.60
2022-08-08T22:55:05.494Z,3.30
2022-08-08T22:57:44.309Z,3.40
2022-08-08T23:00:09.124Z,3.67
2022-08-08T23:02:41.408Z,3.45
2022-08-08T23:05:14.634Z,3.70
2022-08-08T23:07:49.189Z,3.70
2022-08-08T23:10:21.100Z,3.50
2022-08-08T23:12:51.632Z,3.60
2022-08-08T23:16:37.965Z,3.62
2022-08-08T23:17:58.298Z,4.00
2022-08-08T23:20:27.371Z,3.33
2022-08-08T23:22:58.818Z,3.40
2022-08-08T23:25:30.177Z,3.40
2022-08-08T23:28:03.715Z,3.62
2022-08-08T23:30:34.837Z,3.30
2022-08-08T23:33:05.858Z,3.33
2022-08-08T23:36:06.620Z,3.55
2022-08-08T23:38:12.735Z,3.67
2022-08-08T23:40:46.438Z,3.55
2022-08-08T23:43:17.189Z,3.90
2022-08-08T23:49:04.619Z,3.40
2022-08-08T23:49:06.768Z,3.60
2022-08-08T23:50:57.425Z,3.58
2022-08-08T23:53:55.936Z,3.62
2022-08-08T23:55:56.833Z,3.35
2022-08-08T23:58:35.736Z,3.77
